createdAt,value
2019-02-22T00:02:20.571Z,170.87
2019-02-22T00:04:50.285Z,147.17
2019-02-22T00:07:19.914Z,153.33
2019-02-22T00:09:49.958Z,144.63
2019-02-22T00:12:19.644Z,128.97
2019-02-22T00:14:49.530Z,133.70
2019-02-22T00:17:19.162Z,127.27
2019-02-22T00:19:48.833Z,134.57
2019-02-22T00:22:18.492Z,122.87
2019-02-22T00:24:48.349Z,112.17
2019-02-22T00:27:18.009Z,116.80
2019-02-22T00:29:47.670Z,105.23
2019-02-22T00:32:17.361Z,115.33
2019-02-22T00:34:47.110Z,108.07
2019-02-22T00:37:16.956Z,115.77
2019-02-22T00:39:47.149Z,120.17
2019-02-22T00:42:16.993Z,112.93
2019-02-22T00:44:46.609Z,112.87
2019-02-22T00:47:16.494Z,118.40
2019-02-22T00:49:46.352Z,117.00
2019-02-22T00:52:17.006Z,107.17
2019-02-22T00:54:46.873Z,97.03
2019-02-22T00:57:16.496Z,108.47
2019-02-22T00:59:46.115Z,112.43
2019-02-22T01:02:16.061Z,96.77
2019-02-22T01:04:45.774Z,101.33
2019-02-22T01:07:15.632Z,95.33
2019-02-22T01:09:45.252Z,90.57
2019-02-22T01:12:15.160Z,103.67
2019-02-22T01:14:44.793Z,104.97
2019-02-22T01:17:14.676Z,99.97
2019-02-22T01:19:44.315Z,91.50
2019-02-22T01:22:13.937Z,97.83
2019-02-22T01:24:43.737Z,115.10
2019-02-22T01:27:14.051Z,112.13
2019-02-22T01:29:43.738Z,120.43
2019-02-22T01:32:13.604Z,117.77
2019-02-22T01:34:43.512Z,115.93
2019-02-22T01:37:13.431Z,122.53
2019-02-22T01:39:43.087Z,108.90
2019-02-22T01:42:13.017Z,127.50
2019-02-22T01:44:42.620Z,125.23
2019-02-22T01:47:12.372Z,119.47
2019-02-22T01:49:42.026Z,121.50
2019-02-22T01:52:11.720Z,123.17
2019-02-22T01:54:41.409Z,129.90
2019-02-22T01:57:11.277Z,123.10
2019-02-22T01:59:41.216Z,126.73
2019-02-22T02:02:11.077Z,133.73
2019-02-22T02:04:40.827Z,126.43
2019-02-22T02:07:10.642Z,127.40
2019-02-22T02:09:40.266Z,138.83
2019-02-22T02:12:09.888Z,132.47
2019-02-22T02:14:39.808Z,134.17
2019-02-22T02:17:09.484Z,115.50
2019-02-22T02:19:39.103Z,121.23
2019-02-22T02:22:08.816Z,119.03
2019-02-22T02:24:38.449Z,109.13
2019-02-22T02:27:08.376Z,120.43
2019-02-22T02:29:38.467Z,112.70
2019-02-22T02:32:08.500Z,110.07
2019-02-22T02:34:38.122Z,104.10
2019-02-22T02:37:07.816Z,98.00
2019-02-22T02:39:37.791Z,102.47
2019-02-22T02:42:07.474Z,93.50
2019-02-22T02:44:37.220Z,94.17
2019-02-22T02:47:07.085Z,78.10
2019-02-22T02:49:36.773Z,77.83
2019-02-22T02:52:06.468Z,68.33
2019-02-22T02:54:36.088Z,73.23
2019-02-22T02:57:06.027Z,51.93
2019-02-22T02:59:35.955Z,54.53
2019-02-22T03:02:09.129Z,28.93
2019-02-22T03:04:38.783Z,26.77
2019-02-22T03:07:27.621Z,19.80
2019-02-22T03:09:57.706Z,19.50
2019-02-22T03:12:27.328Z,15.17
2019-02-22T03:14:57.161Z,18.73
2019-02-22T03:17:27.147Z,19.00
2019-02-22T03:19:57.085Z,28.00
2019-02-22T03:22:27.012Z,19.67
2019-02-22T03:24:56.681Z,19.70
2019-02-22T03:27:26.301Z,17.40
2019-02-22T03:29:55.928Z,14.53
2019-02-22T03:32:25.825Z,14.57
2019-02-22T03:34:55.740Z,12.93
2019-02-22T03:37:25.360Z,8.97
2019-02-22T03:39:54.990Z,13.50
2019-02-22T03:42:24.655Z,11.13
2019-02-22T03:44:54.277Z,12.47
2019-02-22T03:47:24.207Z,13.87
2019-02-22T03:49:54.066Z,12.80
2019-02-22T03:52:33.892Z,16.00
2019-02-22T03:55:03.756Z,16.17
2019-02-22T03:57:33.696Z,12.87
2019-02-22T04:00:03.384Z,17.13
2019-02-22T04:02:33.604Z,17.40
2019-02-22T04:05:03.457Z,16.63
2019-02-22T04:07:33.660Z,19.47
2019-02-22T04:10:03.688Z,18.40
2019-02-22T04:12:33.632Z,24.30
2019-02-22T04:15:03.413Z,25.37
2019-02-22T04:17:34.407Z,34.23
2019-02-22T04:20:04.394Z,21.70
2019-02-22T04:22:34.234Z,22.10
2019-02-22T04:25:04.167Z,24.43
2019-02-22T04:27:35.082Z,31.50
2019-02-22T04:30:05.312Z,28.30
2019-02-22T04:32:35.058Z,30.13
2019-02-22T04:35:04.904Z,23.17
2019-02-22T04:37:34.745Z,20.53
2019-02-22T04:40:04.847Z,24.90
2019-02-22T04:42:34.521Z,25.27
2019-02-22T04:45:04.636Z,29.63
2019-02-22T04:47:34.374Z,28.07
2019-02-22T04:50:04.189Z,31.37
2019-02-22T04:52:33.936Z,32.43
2019-02-22T04:55:03.906Z,32.77
2019-02-22T04:57:33.666Z,36.87
2019-02-22T05:00:03.698Z,31.03
2019-02-22T05:02:33.638Z,36.03
2019-02-22T05:05:03.465Z,38.77
2019-02-22T05:07:33.093Z,36.03
2019-02-22T05:10:02.828Z,38.67
2019-02-22T05:12:32.480Z,49.57
2019-02-22T05:15:12.072Z,44.20
2019-02-22T05:17:35.779Z,41.43
2019-02-22T05:20:05.411Z,46.53
2019-02-22T05:22:35.165Z,38.63
2019-02-22T05:25:05.607Z,30.77
2019-02-22T05:27:35.260Z,29.77
2019-02-22T05:30:05.301Z,29.17
2019-02-22T05:32:35.215Z,25.03
2019-02-22T05:35:05.168Z,28.40
2019-02-22T05:37:35.045Z,29.37
2019-02-22T05:40:05.003Z,27.63
2019-02-22T05:42:34.657Z,25.10
2019-02-22T05:45:04.466Z,24.10
2019-02-22T05:47:34.103Z,23.47
2019-02-22T05:50:03.912Z,24.67
2019-02-22T05:52:33.621Z,24.27
2019-02-22T05:55:03.576Z,26.20
2019-02-22T05:57:33.218Z,26.30
2019-02-22T06:00:03.573Z,29.10
2019-02-22T06:02:34.075Z,26.57
2019-02-22T06:05:04.060Z,29.83
2019-02-22T06:07:33.940Z,28.67
2019-02-22T06:10:03.737Z,29.87
2019-02-22T06:12:34.814Z,28.63
2019-02-22T06:15:05.428Z,29.57
2019-02-22T06:17:35.070Z,29.57
2019-02-22T06:20:05.151Z,30.87
2019-02-22T06:22:35.154Z,24.97
2019-02-22T06:25:04.900Z,27.43
2019-02-22T06:27:34.516Z,27.00
2019-02-22T06:30:05.429Z,22.97
2019-02-22T06:32:35.290Z,23.47
2019-02-22T06:35:05.408Z,22.33
2019-02-22T06:37:35.094Z,17.60
2019-02-22T06:40:05.308Z,14.77
2019-02-22T06:42:44.932Z,15.37
2019-02-22T06:45:06.593Z,13.20
2019-02-22T06:47:36.280Z,14.53
2019-02-22T06:50:06.232Z,13.47
2019-02-22T06:52:35.929Z,13.67
2019-02-22T06:55:05.916Z,12.07
2019-02-22T06:57:36.000Z,14.00
2019-02-22T07:00:06.312Z,11.90
2019-02-22T07:02:36.157Z,10.73
2019-02-22T07:05:06.196Z,10.50
2019-02-22T07:07:35.821Z,10.70
2019-02-22T07:10:06.790Z,12.17
2019-02-22T07:12:39.897Z,9.40
2019-02-22T07:15:09.856Z,8.97
2019-02-22T07:17:39.633Z,8.80
2019-02-22T07:20:10.518Z,8.90
2019-02-22T07:22:40.228Z,10.57
2019-02-22T07:25:10.465Z,7.73
2019-02-22T07:27:40.089Z,9.80
2019-02-22T07:30:10.379Z,7.20
2019-02-22T07:32:40.246Z,8.10
2019-02-22T07:35:10.142Z,9.70
2019-02-22T07:37:40.969Z,7.23
2019-02-22T07:40:10.643Z,6.60
2019-02-22T07:42:40.589Z,8.10
2019-02-22T07:45:11.336Z,7.50
2019-02-22T07:47:41.006Z,10.23
2019-02-22T07:50:11.789Z,6.83
2019-02-22T07:52:41.470Z,7.70
2019-02-22T07:55:11.425Z,8.10
2019-02-22T07:57:41.041Z,5.80
2019-02-22T08:00:12.844Z,6.50
2019-02-22T08:02:42.675Z,7.93
2019-02-22T08:05:12.409Z,8.67
2019-02-22T08:07:42.106Z,5.90
2019-02-22T08:10:11.892Z,9.17
2019-02-22T08:12:41.618Z,6.73
2019-02-22T08:15:11.386Z,6.43
2019-02-22T08:17:41.060Z,7.27
2019-02-22T08:20:11.226Z,7.53
2019-02-22T08:22:41.328Z,5.77
2019-02-22T08:25:11.115Z,6.33
2019-02-22T08:27:52.775Z,6.23
2019-02-22T08:30:13.484Z,7.30
2019-02-22T08:32:43.661Z,8.23
2019-02-22T08:35:13.286Z,8.57
2019-02-22T08:37:43.160Z,5.90
2019-02-22T08:40:13.075Z,6.37
2019-02-22T08:42:42.697Z,5.73
2019-02-22T08:45:12.328Z,5.60
2019-02-22T08:47:41.999Z,7.67
2019-02-22T08:50:14.341Z,5.70
2019-02-22T08:52:43.172Z,6.27
2019-02-22T08:55:12.801Z,5.83
2019-02-22T08:57:42.470Z,5.83
2019-02-22T09:00:13.214Z,5.87
2019-02-22T09:02:42.828Z,5.40
2019-02-22T09:05:12.570Z,8.00
2019-02-22T09:07:42.169Z,5.57
2019-02-22T09:10:11.885Z,4.67
2019-02-22T09:12:41.492Z,5.47
2019-02-22T09:15:11.315Z,6.90
2019-02-22T09:17:41.891Z,7.03
2019-02-22T09:20:11.614Z,5.57
2019-02-22T09:22:41.394Z,5.17
2019-02-22T09:25:11.072Z,4.50
2019-02-22T09:27:40.781Z,6.20
2019-02-22T09:30:11.463Z,6.40
2019-02-22T09:32:42.210Z,6.80
2019-02-22T09:35:11.910Z,3.30
2019-02-22T09:37:41.575Z,5.90
2019-02-22T09:40:11.491Z,5.27
2019-02-22T09:42:42.110Z,5.00
2019-02-22T09:45:12.292Z,5.20
2019-02-22T09:47:42.309Z,7.03
2019-02-22T09:50:12.356Z,8.13
2019-02-22T09:52:42.221Z,6.20
2019-02-22T09:55:12.311Z,5.67
2019-02-22T09:57:41.993Z,5.97
2019-02-22T10:00:12.693Z,5.23
2019-02-22T10:02:44.650Z,5.47
2019-02-22T10:05:14.738Z,6.07
2019-02-22T10:07:44.354Z,4.70
2019-02-22T10:10:13.969Z,4.53
2019-02-22T10:12:44.662Z,3.50
2019-02-22T10:15:14.264Z,6.00
2019-02-22T10:17:43.937Z,5.97
2019-02-22T10:20:13.616Z,4.53
2019-02-22T10:22:43.507Z,3.97
2019-02-22T10:25:13.440Z,5.70
2019-02-22T10:27:43.336Z,4.73
2019-02-22T10:30:13.028Z,4.43
2019-02-22T10:32:42.957Z,5.33
2019-02-22T10:35:12.912Z,4.07
2019-02-22T10:37:42.566Z,4.57
2019-02-22T10:40:12.500Z,5.03
2019-02-22T10:42:42.432Z,5.33
2019-02-22T10:45:12.324Z,4.47
2019-02-22T10:47:42.004Z,3.57
2019-02-22T10:50:11.775Z,5.73
2019-02-22T10:52:41.369Z,6.57
2019-02-22T10:55:11.385Z,6.07
2019-02-22T10:57:41.222Z,5.20
2019-02-22T11:00:12.150Z,5.73
2019-02-22T11:02:41.985Z,5.07
2019-02-22T11:05:12.101Z,7.60
2019-02-22T11:07:41.713Z,4.40
2019-02-22T11:10:12.368Z,5.07
2019-02-22T11:12:42.077Z,4.70
2019-02-22T11:15:11.996Z,6.07
2019-02-22T11:17:41.888Z,5.33
2019-02-22T11:20:11.577Z,7.23
2019-02-22T11:22:41.194Z,5.53
2019-02-22T11:25:11.529Z,3.73
2019-02-22T11:27:41.214Z,4.40
2019-02-22T11:30:11.848Z,7.63
2019-02-22T11:32:41.528Z,5.37
2019-02-22T11:35:11.553Z,4.50
2019-02-22T11:37:41.609Z,5.55
2019-02-22T11:40:11.668Z,6.43
2019-02-22T11:42:41.554Z,5.50
2019-02-22T11:45:11.304Z,6.50
2019-02-22T11:47:41.192Z,5.70
2019-02-22T11:50:10.965Z,4.73
2019-02-22T11:52:40.581Z,3.83
2019-02-22T11:55:10.512Z,5.07
2019-02-22T11:57:40.209Z,5.13
2019-02-22T12:00:12.807Z,5.83
2019-02-22T12:02:45.185Z,7.43
2019-02-22T12:05:14.076Z,5.63
2019-02-22T12:07:43.689Z,5.00
2019-02-22T12:10:13.696Z,6.27
2019-02-22T12:12:43.460Z,4.77
2019-02-22T12:15:13.351Z,6.03
2019-02-22T12:17:43.036Z,6.50
2019-02-22T12:20:12.874Z,6.27
2019-02-22T12:22:42.753Z,3.83
2019-02-22T12:25:12.541Z,3.93
2019-02-22T12:27:42.305Z,4.23
2019-02-22T12:30:12.947Z,5.80
2019-02-22T12:32:42.817Z,5.30
2019-02-22T12:35:12.413Z,3.87
2019-02-22T12:37:42.028Z,7.10
2019-02-22T12:40:11.799Z,3.57
2019-02-22T12:42:42.152Z,5.53
2019-02-22T12:45:12.119Z,4.53
2019-02-22T12:47:41.730Z,5.27
2019-02-22T12:50:11.495Z,5.63
2019-02-22T12:52:41.124Z,4.83
2019-02-22T12:55:11.356Z,5.10
2019-02-22T12:58:00.204Z,4.30
2019-02-22T13:00:30.043Z,4.70
2019-02-22T13:03:02.324Z,4.80
2019-02-22T13:05:31.032Z,5.77
2019-02-22T13:08:01.040Z,5.70
2019-02-22T13:10:30.730Z,5.07
2019-02-22T13:13:00.862Z,4.93
2019-02-22T13:15:30.526Z,5.10
2019-02-22T13:18:02.823Z,6.53
2019-02-22T13:20:31.592Z,5.30
2019-02-22T13:23:01.524Z,5.30
2019-02-22T13:25:31.160Z,4.27
2019-02-22T13:28:00.776Z,5.60
2019-02-22T13:30:30.380Z,3.70
2019-02-22T13:33:00.000Z,5.23
2019-02-22T13:35:29.675Z,6.33
2019-02-22T13:37:59.592Z,4.97
2019-02-22T13:40:29.305Z,4.93
2019-02-22T13:42:59.182Z,3.70
2019-02-22T13:45:35.065Z,6.40
2019-02-22T13:48:06.460Z,5.30
2019-02-22T13:50:36.496Z,3.73
2019-02-22T13:53:06.176Z,6.50
2019-02-22T13:55:35.811Z,4.90
2019-02-22T13:58:05.797Z,5.00
2019-02-22T14:00:35.536Z,5.13
2019-02-22T14:03:05.494Z,5.93
2019-02-22T14:05:35.126Z,5.90
2019-02-22T14:08:05.052Z,5.23
2019-02-22T14:10:34.666Z,4.40
2019-02-22T14:13:04.286Z,6.23
2019-02-22T14:15:38.039Z,5.20
2019-02-22T14:18:05.314Z,5.17
2019-02-22T14:20:34.950Z,6.27
2019-02-22T14:23:04.912Z,8.63
2019-02-22T14:25:34.546Z,5.93
2019-02-22T14:28:05.228Z,4.90
2019-02-22T14:30:35.217Z,6.77
2019-02-22T14:33:04.938Z,5.80
2019-02-22T14:35:34.553Z,5.80
2019-02-22T14:38:04.719Z,4.67
2019-02-22T14:40:34.369Z,5.33
2019-02-22T14:43:03.977Z,8.37
2019-02-22T14:45:33.606Z,4.47
2019-02-22T14:48:04.348Z,3.30
2019-02-22T14:50:34.009Z,6.13
2019-02-22T14:53:03.741Z,6.77
2019-02-22T14:55:33.371Z,2.97
2019-02-22T14:58:03.048Z,4.03
2019-02-22T15:00:32.740Z,5.30
2019-02-22T15:03:02.468Z,5.53
2019-02-22T15:05:32.081Z,5.40
2019-02-22T15:08:01.692Z,5.33
2019-02-22T15:10:31.840Z,4.17
2019-02-22T15:13:01.463Z,3.73
2019-02-22T15:15:43.421Z,4.07
2019-02-22T15:18:15.288Z,5.53
2019-02-22T15:20:45.408Z,5.30
2019-02-22T15:23:15.006Z,3.70
2019-02-22T15:25:44.742Z,7.27
2019-02-22T15:28:14.349Z,3.63
2019-02-22T15:30:45.234Z,3.57
2019-02-22T15:33:15.365Z,6.80
2019-02-22T15:35:45.297Z,6.33
2019-02-22T15:38:14.909Z,5.37
2019-02-22T15:40:44.577Z,6.80
2019-02-22T15:43:14.245Z,7.13
2019-02-22T15:45:46.969Z,6.07
2019-02-22T15:48:16.378Z,4.60
2019-02-22T15:50:46.043Z,6.30
2019-02-22T15:53:15.644Z,8.47
2019-02-22T15:55:45.825Z,9.30
2019-02-22T15:58:16.700Z,5.60
2019-02-22T16:00:46.320Z,5.60
2019-02-22T16:03:15.924Z,6.30
2019-02-22T16:05:46.213Z,5.50
2019-02-22T16:08:15.933Z,8.07
2019-02-22T16:10:45.542Z,6.77
2019-02-22T16:13:15.140Z,6.50
2019-02-22T16:15:44.755Z,9.60
2019-02-22T16:18:14.682Z,4.87
2019-02-22T16:20:44.296Z,5.13
2019-02-22T16:23:13.896Z,6.63
2019-02-22T16:25:43.611Z,5.67
2019-02-22T16:28:15.702Z,6.00
2019-02-22T16:30:44.542Z,6.73
2019-02-22T16:33:14.141Z,7.67
2019-02-22T16:35:44.072Z,9.73
2019-02-22T16:38:13.694Z,10.20
2019-02-22T16:40:43.428Z,7.33
2019-02-22T16:43:13.107Z,7.23
2019-02-22T16:45:42.960Z,6.70
2019-02-22T16:48:13.381Z,8.20
2019-02-22T16:50:43.306Z,7.13
2019-02-22T16:53:12.912Z,7.50
2019-02-22T16:55:42.769Z,7.10
2019-02-22T16:58:12.762Z,7.83
2019-02-22T17:00:42.737Z,6.77
2019-02-22T17:03:12.611Z,8.47
2019-02-22T17:05:42.348Z,7.87
2019-02-22T17:08:12.217Z,12.20
2019-02-22T17:10:41.826Z,13.60
2019-02-22T17:13:11.446Z,9.80
2019-02-22T17:15:41.188Z,7.03
2019-02-22T17:18:11.264Z,7.70
2019-02-22T17:20:40.950Z,6.23
2019-02-22T17:23:10.906Z,6.80
2019-02-22T17:25:40.517Z,6.13
2019-02-22T17:28:10.132Z,7.67
2019-02-22T17:30:39.732Z,7.23
2019-02-22T17:33:09.434Z,8.70
2019-02-22T17:35:39.039Z,9.93
2019-02-22T17:38:08.664Z,11.97
2019-02-22T17:40:38.396Z,17.23
2019-02-22T17:43:08.101Z,13.07
2019-02-22T17:45:39.184Z,10.80
2019-02-22T17:48:09.526Z,10.93
2019-02-22T17:50:40.747Z,8.43
2019-02-22T17:53:10.389Z,6.70
2019-02-22T17:55:43.102Z,6.73
2019-02-22T17:58:24.060Z,18.53
2019-02-22T18:00:45.418Z,29.20
2019-02-22T18:03:15.169Z,12.17
2019-02-22T18:05:46.282Z,15.33
2019-02-22T18:08:16.143Z,12.67
2019-02-22T18:10:45.973Z,11.20
2019-02-22T18:13:15.976Z,15.63
2019-02-22T18:15:45.599Z,19.73
2019-02-22T18:18:15.912Z,29.57
2019-02-22T18:20:45.763Z,31.30
2019-02-22T18:23:15.660Z,19.20
2019-02-22T18:25:45.314Z,14.97
2019-02-22T18:28:15.280Z,6.50
2019-02-22T18:30:45.517Z,7.17
2019-02-22T18:33:15.320Z,7.60
2019-02-22T18:35:48.504Z,5.93
2019-02-22T18:38:18.164Z,8.03
2019-02-22T18:40:48.166Z,6.40
2019-02-22T18:43:18.427Z,7.00
2019-02-22T18:45:48.243Z,7.60
2019-02-22T18:48:18.856Z,7.80
2019-02-22T18:50:48.595Z,7.73
2019-02-22T18:53:18.206Z,8.47
2019-02-22T18:55:50.328Z,7.07
2019-02-22T18:58:19.731Z,8.37
2019-02-22T19:00:49.336Z,9.10
2019-02-22T19:03:19.002Z,9.67
2019-02-22T19:05:48.617Z,9.77
2019-02-22T19:08:18.315Z,8.53
2019-02-22T19:10:47.936Z,7.00
2019-02-22T19:13:17.560Z,8.07
2019-02-22T19:15:47.258Z,9.43
2019-02-22T19:18:16.877Z,8.87
2019-02-22T19:20:47.034Z,8.47
2019-02-22T19:23:16.890Z,9.50
2019-02-22T19:25:46.503Z,7.37
2019-02-22T19:28:16.420Z,7.77
2019-02-22T19:30:46.027Z,7.47
2019-02-22T19:33:15.700Z,10.13
2019-02-22T19:35:45.604Z,8.67
2019-02-22T19:38:15.465Z,6.73
2019-02-22T19:40:45.672Z,9.27
2019-02-22T19:43:15.283Z,10.00
2019-02-22T19:45:44.892Z,8.23
2019-02-22T19:48:14.509Z,8.90
2019-02-22T19:50:44.117Z,9.50
2019-02-22T19:53:13.797Z,10.30
2019-02-22T19:55:43.767Z,8.13
2019-02-22T19:58:13.372Z,8.80
2019-02-22T20:00:43.056Z,8.43
2019-02-22T20:03:12.996Z,8.13
2019-02-22T20:05:42.719Z,8.50
2019-02-22T20:08:12.405Z,8.23
2019-02-22T20:10:42.023Z,5.93
2019-02-22T20:13:11.645Z,8.67
2019-02-22T20:15:41.266Z,7.43
2019-02-22T20:18:11.081Z,11.03
2019-02-22T20:20:40.725Z,7.73
2019-02-22T20:23:10.499Z,9.67
2019-02-22T20:25:40.132Z,8.73
2019-02-22T20:28:10.040Z,8.37
2019-02-22T20:30:39.655Z,9.00
2019-02-22T20:33:09.300Z,10.03
2019-02-22T20:35:39.061Z,12.43
2019-02-22T20:38:09.004Z,8.20
2019-02-22T20:40:38.927Z,7.27
2019-02-22T20:43:09.166Z,11.07
2019-02-22T20:45:38.944Z,7.07
2019-02-22T20:48:08.602Z,8.57
2019-02-22T20:50:39.375Z,7.00
2019-02-22T20:53:09.280Z,8.07
2019-02-22T20:55:38.902Z,7.77
2019-02-22T20:58:08.521Z,6.80
2019-02-22T21:00:38.375Z,8.60
2019-02-22T21:03:07.989Z,8.93
2019-02-22T21:05:37.600Z,7.83
2019-02-22T21:08:07.213Z,11.00
2019-02-22T21:10:36.898Z,6.57
2019-02-22T21:13:07.848Z,6.83
2019-02-22T21:15:37.701Z,8.50
2019-02-22T21:18:15.857Z,8.23
2019-02-22T21:20:38.890Z,9.13
2019-02-22T21:23:08.498Z,8.03
2019-02-22T21:25:38.174Z,7.30
2019-02-22T21:28:08.013Z,8.80
2019-02-22T21:30:37.981Z,6.10
2019-02-22T21:33:07.628Z,7.17
2019-02-22T21:35:37.805Z,6.10
2019-02-22T21:38:07.719Z,6.33
2019-02-22T21:40:37.333Z,9.30
2019-02-22T21:43:07.436Z,7.30
2019-02-22T21:45:38.284Z,8.70
2019-02-22T21:48:08.189Z,6.67
2019-02-22T21:50:38.072Z,6.53
2019-02-22T21:53:07.675Z,5.70
2019-02-22T21:55:37.369Z,7.73
2019-02-22T21:58:08.052Z,8.50
2019-02-22T22:00:37.678Z,7.77
2019-02-22T22:03:07.541Z,6.93
2019-02-22T22:05:37.158Z,7.70
2019-02-22T22:08:06.762Z,5.70
2019-02-22T22:10:36.372Z,6.73
2019-02-22T22:13:07.303Z,5.67
2019-02-22T22:15:56.380Z,8.27
2019-02-22T22:18:26.286Z,7.07
2019-02-22T22:20:56.094Z,5.40
2019-02-22T22:23:25.699Z,10.40
2019-02-22T22:25:55.327Z,6.67
2019-02-22T22:28:24.924Z,7.17
2019-02-22T22:30:54.543Z,7.53
2019-02-22T22:33:24.457Z,6.93
2019-02-22T22:35:54.478Z,7.67
2019-02-22T22:38:24.076Z,6.10
2019-02-22T22:40:53.685Z,6.80
2019-02-22T22:43:23.578Z,6.07
2019-02-22T22:45:53.430Z,7.07
2019-02-22T22:48:23.380Z,8.50
2019-02-22T22:50:53.060Z,7.33
2019-02-22T22:53:22.778Z,9.60
2019-02-22T22:55:52.394Z,6.53
2019-02-22T22:58:22.004Z,5.40
2019-02-22T23:01:05.717Z,6.37
2019-02-22T23:03:36.668Z,5.47
2019-02-22T23:06:07.556Z,8.93
2019-02-22T23:08:37.163Z,5.27
2019-02-22T23:11:07.011Z,8.13
2019-02-22T23:13:37.029Z,6.37
2019-02-22T23:16:07.370Z,5.70
2019-02-22T23:18:37.061Z,6.47
2019-02-22T23:21:06.819Z,6.53
2019-02-22T23:23:37.319Z,6.90
2019-02-22T23:26:06.921Z,7.90
2019-02-22T23:28:36.864Z,8.20
2019-02-22T23:31:06.660Z,7.97
2019-02-22T23:33:36.797Z,7.13
2019-02-22T23:36:06.475Z,5.60
2019-02-22T23:38:36.097Z,6.17
2019-02-22T23:41:05.714Z,10.70
2019-02-22T23:43:35.333Z,7.53
2019-02-22T23:46:05.336Z,6.30
2019-02-22T23:48:35.704Z,6.47
2019-02-22T23:51:05.719Z,7.03
2019-02-22T23:53:35.613Z,7.73
2019-02-22T23:56:06.899Z,7.13
2019-02-22T23:58:36.517Z,6.20
